createdAt,value
2018-07-03T00:01:43.971Z,4.80
2018-07-03T00:04:11.501Z,6.83
2018-07-03T00:06:39.094Z,6.17
2018-07-03T00:09:07.674Z,4.53
2018-07-03T00:11:35.447Z,5.17
2018-07-03T00:14:02.988Z,5.90
2018-07-03T00:16:36.344Z,5.90
2018-07-03T00:19:03.981Z,6.00
2018-07-03T00:21:31.640Z,5.20
2018-07-03T00:23:59.108Z,6.47
2018-07-03T00:26:26.759Z,6.97
2018-07-03T00:28:54.746Z,6.80
2018-07-03T00:31:22.282Z,6.90
2018-07-03T00:33:50.751Z,6.90
2018-07-03T00:36:18.307Z,7.37
2018-07-03T00:38:45.892Z,6.77
2018-07-03T00:41:13.419Z,9.50
2018-07-03T00:43:40.990Z,8.00
2018-07-03T00:46:08.564Z,7.80
2018-07-03T00:48:36.263Z,6.70
2018-07-03T00:51:03.845Z,7.43
2018-07-03T00:53:31.391Z,7.63
2018-07-03T00:55:58.912Z,8.13
2018-07-03T00:58:26.501Z,7.47
2018-07-03T01:00:54.105Z,8.50
2018-07-03T01:03:21.623Z,8.93
2018-07-03T01:05:49.127Z,12.60
2018-07-03T01:08:16.739Z,9.10
2018-07-03T01:10:44.378Z,9.70
2018-07-03T01:13:11.896Z,8.93
2018-07-03T01:15:39.496Z,10.10
2018-07-03T01:18:07.089Z,8.17
2018-07-03T01:20:34.612Z,8.60
2018-07-03T01:23:02.468Z,8.20
2018-07-03T01:25:30.039Z,7.63
2018-07-03T01:27:57.552Z,8.17
2018-07-03T01:30:25.090Z,12.60
2018-07-03T01:32:52.724Z,8.70
2018-07-03T01:35:20.405Z,12.00
2018-07-03T01:37:48.173Z,10.57
2018-07-03T01:40:15.862Z,9.77
2018-07-03T01:42:43.352Z,9.10
2018-07-03T01:45:10.930Z,8.67
2018-07-03T01:47:38.450Z,8.67
2018-07-03T01:50:05.925Z,9.60
2018-07-03T01:52:33.482Z,11.30
2018-07-03T01:55:00.985Z,13.27
2018-07-03T01:57:28.615Z,11.00
2018-07-03T01:59:56.071Z,12.10
2018-07-03T02:02:23.575Z,14.80
2018-07-03T02:04:51.087Z,17.40
2018-07-03T02:07:18.575Z,18.00
2018-07-03T02:09:46.071Z,18.37
2018-07-03T02:12:13.536Z,18.50
2018-07-03T02:14:41.055Z,19.03
2018-07-03T02:17:08.565Z,20.83
2018-07-03T02:19:36.064Z,19.60
2018-07-03T02:22:03.567Z,19.57
2018-07-03T02:24:31.053Z,19.50
2018-07-03T02:26:58.557Z,18.97
2018-07-03T02:29:26.114Z,19.27
2018-07-03T02:31:53.607Z,19.67
2018-07-03T02:34:21.064Z,17.40
2018-07-03T02:36:48.569Z,17.23
2018-07-03T02:39:16.204Z,15.10
2018-07-03T02:41:43.731Z,16.63
2018-07-03T02:44:11.217Z,17.70
2018-07-03T02:46:38.755Z,16.50
2018-07-03T02:49:06.306Z,18.67
2018-07-03T02:51:33.834Z,20.47
2018-07-03T02:54:01.321Z,18.20
2018-07-03T02:56:28.808Z,18.60
2018-07-03T02:58:56.303Z,19.43
2018-07-03T03:01:23.794Z,21.37
2018-07-03T03:03:51.301Z,19.10
2018-07-03T03:06:18.811Z,19.63
2018-07-03T03:08:46.678Z,19.00
2018-07-03T03:11:14.163Z,17.40
2018-07-03T03:13:41.647Z,16.53
2018-07-03T03:16:12.648Z,19.50
2018-07-03T03:18:40.162Z,21.33
2018-07-03T03:21:07.643Z,19.43
2018-07-03T03:23:35.151Z,19.33
2018-07-03T03:26:02.667Z,19.40
2018-07-03T03:28:30.218Z,20.33
2018-07-03T03:30:57.912Z,21.40
2018-07-03T03:33:25.447Z,22.30
2018-07-03T03:35:52.968Z,20.90
2018-07-03T03:38:20.464Z,22.60
2018-07-03T03:40:48.032Z,24.07
2018-07-03T03:43:15.819Z,21.87
2018-07-03T03:45:43.355Z,23.27
2018-07-03T03:48:10.884Z,24.80
2018-07-03T03:50:38.443Z,24.17
2018-07-03T03:53:06.024Z,21.20
2018-07-03T03:55:33.704Z,23.70
2018-07-03T03:58:01.346Z,23.60
2018-07-03T04:00:28.975Z,24.73
2018-07-03T04:02:56.692Z,24.50
2018-07-03T04:05:24.185Z,27.13
2018-07-03T04:07:51.914Z,27.57
2018-07-03T04:10:19.888Z,28.43
2018-07-03T04:12:47.377Z,28.50
2018-07-03T04:15:14.775Z,27.67
2018-07-03T04:17:42.255Z,31.43
2018-07-03T04:20:09.792Z,32.33
2018-07-03T04:22:37.377Z,28.50
2018-07-03T04:25:04.835Z,31.67
2018-07-03T04:27:32.719Z,27.87
2018-07-03T04:30:00.236Z,30.30
2018-07-03T04:32:27.759Z,31.33
2018-07-03T04:34:55.411Z,30.10
2018-07-03T04:37:22.880Z,28.90
2018-07-03T04:39:50.376Z,28.93
2018-07-03T04:42:18.016Z,32.27
2018-07-03T04:44:45.597Z,32.67
2018-07-03T04:47:16.664Z,29.67
2018-07-03T04:49:44.504Z,30.67
2018-07-03T04:52:12.575Z,29.90
2018-07-03T04:54:40.097Z,31.30
2018-07-03T04:57:07.611Z,30.87
2018-07-03T04:59:35.835Z,29.20
2018-07-03T05:02:03.484Z,31.63
2018-07-03T05:04:30.948Z,31.83
2018-07-03T05:06:58.465Z,25.23
2018-07-03T05:09:25.933Z,30.87
2018-07-03T05:11:53.512Z,27.07
2018-07-03T05:14:21.091Z,20.17
2018-07-03T05:16:53.217Z,24.80
2018-07-03T05:19:20.744Z,28.93
2018-07-03T05:21:48.444Z,29.27
2018-07-03T05:24:15.970Z,27.13
2018-07-03T05:26:43.487Z,19.23
2018-07-03T05:29:11.119Z,26.33
2018-07-03T05:31:38.676Z,20.53
2018-07-03T05:34:06.733Z,21.27
2018-07-03T05:36:34.287Z,29.13
2018-07-03T05:39:01.910Z,20.17
2018-07-03T05:41:29.520Z,26.97
2018-07-03T05:43:57.097Z,21.77
2018-07-03T05:46:24.649Z,20.40
2018-07-03T05:48:52.144Z,16.43
2018-07-03T05:51:19.872Z,15.13
2018-07-03T05:53:47.336Z,13.40
2018-07-03T05:56:14.877Z,13.23
2018-07-03T05:58:42.427Z,13.67
2018-07-03T06:01:10.221Z,12.77
2018-07-03T06:03:37.783Z,15.20
2018-07-03T06:06:05.729Z,12.00
2018-07-03T06:08:33.301Z,11.60
2018-07-03T06:11:00.774Z,11.93
2018-07-03T06:13:28.400Z,11.67
2018-07-03T06:15:55.968Z,10.37
2018-07-03T06:18:23.583Z,10.17
2018-07-03T06:20:51.311Z,9.80
2018-07-03T06:23:18.837Z,10.07
2018-07-03T06:25:46.732Z,8.10
2018-07-03T06:28:14.816Z,12.03
2018-07-03T06:30:43.115Z,8.80
2018-07-03T06:33:10.928Z,6.73
2018-07-03T06:35:38.495Z,6.30
2018-07-03T06:38:06.142Z,7.10
2018-07-03T06:40:33.744Z,9.60
2018-07-03T06:43:01.594Z,5.80
2018-07-03T06:45:29.301Z,6.80
2018-07-03T06:47:57.516Z,6.40
2018-07-03T06:50:25.324Z,3.87
2018-07-03T06:52:53.189Z,6.00
2018-07-03T06:55:20.696Z,3.90
2018-07-03T06:57:48.257Z,6.23
2018-07-03T07:00:16.136Z,4.10
2018-07-03T07:02:44.004Z,2.67
2018-07-03T07:05:11.487Z,3.80
2018-07-03T07:07:38.948Z,2.63
2018-07-03T07:10:07.035Z,2.37
2018-07-03T07:12:34.499Z,2.40
2018-07-03T07:15:02.043Z,5.23
2018-07-03T07:17:29.531Z,3.10
2018-07-03T07:19:57.098Z,4.40
2018-07-03T07:22:24.582Z,2.17
2018-07-03T07:24:52.380Z,3.77
2018-07-03T07:27:20.224Z,4.10
2018-07-03T07:29:47.709Z,2.80
2018-07-03T07:32:23.185Z,2.53
2018-07-03T07:34:50.709Z,3.47
2018-07-03T07:37:18.206Z,2.60
2018-07-03T07:39:45.784Z,2.43
2018-07-03T07:42:13.288Z,2.40
2018-07-03T07:44:40.980Z,2.47
2018-07-03T07:47:08.495Z,3.30
2018-07-03T07:49:38.167Z,3.10
2018-07-03T07:52:05.923Z,2.80
2018-07-03T07:54:33.448Z,3.03
2018-07-03T07:57:00.968Z,2.97
2018-07-03T07:59:28.519Z,3.20
2018-07-03T08:01:56.061Z,3.03
2018-07-03T08:04:23.612Z,2.33
2018-07-03T08:06:51.176Z,3.70
2018-07-03T08:09:18.736Z,3.20
2018-07-03T08:11:46.204Z,5.40
2018-07-03T08:14:13.747Z,6.43
2018-07-03T08:16:41.304Z,4.73
2018-07-03T08:19:08.837Z,4.37
2018-07-03T08:21:36.368Z,6.63
2018-07-03T08:24:06.387Z,4.40
2018-07-03T08:26:33.905Z,6.60
2018-07-03T08:29:01.983Z,7.87
2018-07-03T08:31:29.539Z,2.80
2018-07-03T08:33:57.046Z,3.27
2018-07-03T08:36:36.324Z,5.60
2018-07-03T08:39:06.405Z,3.93
2018-07-03T08:41:34.236Z,4.20
2018-07-03T08:44:01.907Z,1.80
2018-07-03T08:46:29.534Z,2.40
2018-07-03T08:48:57.168Z,1.60
2018-07-03T08:51:24.768Z,1.57
2018-07-03T08:53:52.276Z,2.00
2018-07-03T08:56:19.866Z,3.77
2018-07-03T08:58:47.380Z,2.17
2018-07-03T09:01:14.824Z,3.03
2018-07-03T09:03:42.297Z,2.80
2018-07-03T09:06:09.747Z,1.13
2018-07-03T09:08:37.215Z,4.30
2018-07-03T09:11:04.679Z,3.50
2018-07-03T09:13:32.456Z,3.90
2018-07-03T09:15:59.954Z,1.57
2018-07-03T09:18:27.419Z,2.33
2018-07-03T09:20:55.016Z,2.40
2018-07-03T09:23:22.547Z,2.03
2018-07-03T09:25:50.033Z,4.23
2018-07-03T09:28:17.468Z,1.57
2018-07-03T09:30:45.287Z,1.57
2018-07-03T09:33:13.086Z,1.20
2018-07-03T09:35:40.642Z,1.47
2018-07-03T09:38:08.597Z,1.27
2018-07-03T09:40:36.397Z,1.57
2018-07-03T09:43:04.097Z,1.50
2018-07-03T09:45:31.572Z,3.13
2018-07-03T09:47:59.085Z,2.07
2018-07-03T09:50:27.011Z,1.50
2018-07-03T09:52:54.558Z,2.33
2018-07-03T09:55:22.056Z,2.20
2018-07-03T09:57:49.498Z,1.70
2018-07-03T10:00:21.531Z,4.87
2018-07-03T10:02:48.947Z,2.70
2018-07-03T10:05:16.398Z,1.93
2018-07-03T10:07:43.970Z,1.53
2018-07-03T10:10:11.472Z,1.70
2018-07-03T10:12:38.936Z,1.33
2018-07-03T10:15:06.497Z,1.60
2018-07-03T10:17:33.951Z,1.60
2018-07-03T10:20:01.428Z,1.37
2018-07-03T10:22:28.895Z,3.70
2018-07-03T10:24:56.332Z,1.43
2018-07-03T10:27:23.748Z,1.30
2018-07-03T10:29:51.227Z,1.60
2018-07-03T10:32:18.903Z,2.50
2018-07-03T10:34:46.771Z,2.60
2018-07-03T10:37:14.192Z,1.40
2018-07-03T10:39:41.621Z,2.93
2018-07-03T10:42:09.047Z,1.30
2018-07-03T10:44:36.488Z,2.73
2018-07-03T10:47:03.951Z,1.60
2018-07-03T10:49:31.451Z,1.50
2018-07-03T10:52:01.136Z,1.40
2018-07-03T10:54:28.797Z,1.47
2018-07-03T10:56:56.244Z,1.63
2018-07-03T10:59:23.847Z,1.60
2018-07-03T11:01:53.590Z,1.97
2018-07-03T11:04:21.059Z,2.90
2018-07-03T11:06:48.607Z,1.53
2018-07-03T11:09:16.048Z,1.90
2018-07-03T11:11:43.547Z,3.03
2018-07-03T11:14:10.987Z,3.47
2018-07-03T11:16:38.483Z,2.47
2018-07-03T11:19:06.260Z,2.07
2018-07-03T11:21:33.879Z,3.50
2018-07-03T11:24:01.431Z,1.67
2018-07-03T11:26:28.995Z,2.20
2018-07-03T11:28:56.443Z,2.37
2018-07-03T11:31:23.914Z,1.50
2018-07-03T11:33:51.377Z,1.83
2018-07-03T11:36:19.302Z,2.97
2018-07-03T11:38:47.043Z,3.50
2018-07-03T11:41:14.481Z,3.27
2018-07-03T11:43:41.898Z,2.40
2018-07-03T11:46:09.417Z,6.13
2018-07-03T11:48:36.919Z,3.60
2018-07-03T11:51:04.320Z,5.30
2018-07-03T11:53:31.878Z,3.23
2018-07-03T11:55:59.312Z,2.20
2018-07-03T11:58:26.852Z,2.47
2018-07-03T12:00:54.390Z,5.47
2018-07-03T12:03:21.892Z,2.53
2018-07-03T12:05:50.017Z,1.60
2018-07-03T12:08:17.508Z,2.03
2018-07-03T12:10:44.962Z,1.23
2018-07-03T12:13:12.420Z,1.90
2018-07-03T12:15:40.029Z,2.70
2018-07-03T12:18:12.576Z,2.00
2018-07-03T12:20:40.091Z,1.80
2018-07-03T12:23:07.572Z,2.33
2018-07-03T12:25:35.053Z,1.77
2018-07-03T12:28:02.576Z,2.40
2018-07-03T12:30:30.016Z,3.80
2018-07-03T12:32:57.462Z,2.13
2018-07-03T12:35:24.888Z,3.30
2018-07-03T12:37:52.316Z,3.90
2018-07-03T12:40:19.776Z,2.83
2018-07-03T12:42:47.298Z,6.93
2018-07-03T12:45:14.745Z,3.20
2018-07-03T12:47:42.251Z,1.73
2018-07-03T12:50:09.894Z,2.50
2018-07-03T12:52:37.335Z,2.40
2018-07-03T12:55:04.895Z,2.67
2018-07-03T12:57:32.701Z,3.83
2018-07-03T13:00:00.251Z,3.00
2018-07-03T13:02:27.708Z,4.43
2018-07-03T13:04:55.186Z,2.67
2018-07-03T13:07:22.714Z,4.10
2018-07-03T13:09:50.180Z,2.40
2018-07-03T13:12:17.811Z,3.53
2018-07-03T13:14:45.295Z,2.40
2018-07-03T13:17:12.667Z,3.23
2018-07-03T13:19:40.131Z,4.40
2018-07-03T13:22:08.679Z,5.40
2018-07-03T13:24:36.165Z,4.00
2018-07-03T13:27:03.720Z,8.03
2018-07-03T13:29:31.317Z,5.33
2018-07-03T13:31:58.922Z,4.20
2018-07-03T13:34:26.504Z,3.23
2018-07-03T13:36:54.126Z,3.93
2018-07-03T13:39:21.747Z,4.10
2018-07-03T13:41:49.276Z,4.50
2018-07-03T13:44:16.727Z,3.10
2018-07-03T13:46:44.223Z,3.80
2018-07-03T13:49:11.719Z,2.90
2018-07-03T13:51:39.412Z,5.53
2018-07-03T13:54:07.063Z,2.50
2018-07-03T13:56:34.467Z,4.30
2018-07-03T13:59:01.934Z,4.27
2018-07-03T14:01:29.515Z,6.50
2018-07-03T14:03:57.091Z,8.20
2018-07-03T14:06:24.580Z,5.30
2018-07-03T14:08:52.233Z,4.00
2018-07-03T14:11:19.791Z,3.03
2018-07-03T14:13:47.344Z,3.47
2018-07-03T14:16:14.891Z,3.93
2018-07-03T14:18:42.385Z,3.80
2018-07-03T14:21:10.311Z,4.40
2018-07-03T14:23:37.859Z,5.03
2018-07-03T14:26:05.379Z,6.20
2018-07-03T14:28:32.905Z,5.23
2018-07-03T14:31:00.457Z,4.40
2018-07-03T14:33:27.943Z,3.70
2018-07-03T14:35:55.485Z,5.70
2018-07-03T14:38:23.044Z,4.80
2018-07-03T14:40:50.524Z,5.00
2018-07-03T14:43:18.092Z,4.23
2018-07-03T14:45:45.604Z,7.00
2018-07-03T14:48:13.298Z,4.30
2018-07-03T14:50:40.868Z,4.33
2018-07-03T14:53:08.409Z,4.07
2018-07-03T14:55:35.857Z,5.37
2018-07-03T14:58:03.456Z,7.57
2018-07-03T15:00:31.411Z,8.37
2018-07-03T15:02:58.963Z,4.30
2018-07-03T15:05:26.411Z,5.00
2018-07-03T15:07:54.078Z,8.63
2018-07-03T15:10:22.144Z,4.77
2018-07-03T15:12:49.783Z,3.83
2018-07-03T15:15:17.236Z,3.53
2018-07-03T15:17:44.925Z,5.27
2018-07-03T15:20:12.461Z,3.87
2018-07-03T15:22:40.059Z,4.40
2018-07-03T15:25:07.739Z,6.93
2018-07-03T15:27:35.270Z,5.50
2018-07-03T15:30:03.291Z,5.17
2018-07-03T15:32:33.532Z,4.17
2018-07-03T15:35:01.117Z,4.53
2018-07-03T15:37:28.575Z,3.83
2018-07-03T15:39:56.227Z,4.50
2018-07-03T15:42:23.689Z,5.03
2018-07-03T15:44:58.991Z,6.20
2018-07-03T15:47:26.496Z,4.53
2018-07-03T15:49:54.336Z,5.00
2018-07-03T15:52:21.856Z,4.37
2018-07-03T15:54:49.748Z,6.40
2018-07-03T15:57:17.230Z,4.53
2018-07-03T15:59:44.914Z,4.10
2018-07-03T16:02:12.512Z,7.13
2018-07-03T16:05:00.392Z,5.07
2018-07-03T16:09:47.327Z,5.13
2018-07-03T16:12:14.924Z,4.17
2018-07-03T16:14:44.075Z,6.07
2018-07-03T16:17:12.268Z,8.17
2018-07-03T16:19:45.399Z,7.63
2018-07-03T16:22:13.523Z,6.97
2018-07-03T16:24:41.063Z,4.20
2018-07-03T16:27:08.544Z,6.73
2018-07-03T16:29:36.301Z,5.13
2018-07-03T16:32:03.849Z,6.10
2018-07-03T16:34:31.307Z,6.60
2018-07-03T16:36:58.793Z,6.40
2018-07-03T16:39:26.314Z,6.57
2018-07-03T16:41:53.870Z,4.23
2018-07-03T16:44:21.359Z,4.73
2018-07-03T16:46:48.990Z,7.10
2018-07-03T16:49:16.534Z,6.17
2018-07-03T16:51:44.072Z,6.73
2018-07-03T16:54:12.352Z,9.77
2018-07-03T16:56:39.844Z,5.27
2018-07-03T16:59:08.013Z,5.47
2018-07-03T17:01:35.692Z,7.47
2018-07-03T17:04:03.324Z,3.80
2018-07-03T17:06:30.867Z,6.30
2018-07-03T17:08:58.359Z,8.07
2018-07-03T17:11:25.941Z,4.80
2018-07-03T17:13:53.595Z,5.03
2018-07-03T17:16:21.098Z,5.60
2018-07-03T17:18:54.126Z,5.00
2018-07-03T17:21:21.628Z,6.33
2018-07-03T17:23:49.207Z,4.20
2018-07-03T17:26:16.800Z,4.57
2018-07-03T17:28:44.476Z,4.93
2018-07-03T17:31:12.063Z,6.90
2018-07-03T17:33:39.822Z,4.90
2018-07-03T17:36:07.380Z,4.43
2018-07-03T17:38:34.983Z,8.60
2018-07-03T17:41:08.136Z,7.67
2018-07-03T17:44:14.332Z,8.30
2018-07-03T17:46:42.080Z,5.80
2018-07-03T17:49:09.952Z,6.73
2018-07-03T17:51:37.524Z,6.73
2018-07-03T17:54:05.387Z,5.73
2018-07-03T17:56:33.020Z,8.37
2018-07-03T17:59:00.742Z,6.67
2018-07-03T18:01:28.284Z,7.50
2018-07-03T18:03:55.871Z,7.53
2018-07-03T18:06:23.335Z,6.60
2018-07-03T18:08:51.288Z,8.70
2018-07-03T18:11:19.227Z,5.77
2018-07-03T18:13:46.732Z,5.60
2018-07-03T18:16:14.273Z,5.47
2018-07-03T18:18:41.851Z,7.20
2018-07-03T18:21:09.823Z,4.17
2018-07-03T18:23:37.364Z,7.63
2018-07-03T18:26:05.226Z,5.60
2018-07-03T18:28:32.685Z,4.80
2018-07-03T18:31:00.157Z,6.93
2018-07-03T18:33:27.851Z,5.63
2018-07-03T18:35:55.380Z,6.80
2018-07-03T18:38:22.897Z,7.50
2018-07-03T18:40:50.381Z,6.83
2018-07-03T18:43:17.844Z,4.70
2018-07-03T18:45:45.468Z,5.33
2018-07-03T18:48:12.955Z,5.73
2018-07-03T18:50:40.483Z,8.50
2018-07-03T18:53:08.045Z,9.80
2018-07-03T18:55:35.536Z,3.90
2018-07-03T18:58:03.048Z,7.47
2018-07-03T19:00:30.548Z,6.33
2018-07-03T19:02:58.116Z,4.60
2018-07-03T19:05:25.646Z,6.30
2018-07-03T19:07:53.513Z,8.10
2018-07-03T19:10:21.074Z,6.03
2018-07-03T19:12:48.520Z,6.17
2018-07-03T19:15:16.025Z,5.97
2018-07-03T19:17:43.644Z,6.50
2018-07-03T19:20:11.163Z,5.47
2018-07-03T19:22:39.003Z,5.10
2018-07-03T19:25:06.388Z,8.50
2018-07-03T19:27:34.332Z,5.27
2018-07-03T19:30:01.780Z,5.17
2018-07-03T19:32:29.271Z,8.70
2018-07-03T19:34:56.722Z,6.50
2018-07-03T19:37:24.301Z,7.50
2018-07-03T19:39:52.583Z,9.43
2018-07-03T19:42:20.326Z,7.50
2018-07-03T19:44:47.732Z,8.90
2018-07-03T19:47:15.393Z,12.43
2018-07-03T19:49:42.892Z,8.63
2018-07-03T19:52:10.554Z,6.90
2018-07-03T19:54:38.125Z,8.00
2018-07-03T19:57:05.736Z,8.30
2018-07-03T19:59:33.220Z,12.57
2018-07-03T20:02:00.912Z,7.53
2018-07-03T20:04:28.397Z,7.53
2018-07-03T20:06:56.071Z,7.40
2018-07-03T20:09:23.964Z,17.90
2018-07-03T20:11:51.565Z,10.43
2018-07-03T20:14:19.148Z,11.50
2018-07-03T20:16:46.651Z,8.67
2018-07-03T20:19:15.380Z,9.90
2018-07-03T20:21:44.664Z,10.20
2018-07-03T20:24:12.619Z,8.50
2018-07-03T20:26:40.662Z,11.13
2018-07-03T20:29:08.252Z,9.87
2018-07-03T20:31:35.827Z,10.60
2018-07-03T20:34:03.356Z,10.97
2018-07-03T20:36:32.975Z,17.67
2018-07-03T20:39:00.646Z,12.17
2018-07-03T20:41:28.757Z,10.83
2018-07-03T20:43:56.559Z,10.73
2018-07-03T20:46:24.157Z,8.63
2018-07-03T20:48:51.801Z,12.60
2018-07-03T20:51:19.307Z,10.37
2018-07-03T20:53:46.789Z,11.93
2018-07-03T20:56:14.376Z,10.40
2018-07-03T20:58:41.878Z,10.30
2018-07-03T21:01:09.479Z,10.00
2018-07-03T21:03:37.328Z,8.60
2018-07-03T21:06:05.216Z,14.23
2018-07-03T21:08:32.627Z,9.17
2018-07-03T21:11:00.122Z,16.40
2018-07-03T21:13:27.616Z,12.73
2018-07-03T21:15:55.124Z,11.00
2018-07-03T21:18:22.682Z,10.13
2018-07-03T21:20:50.220Z,9.33
2018-07-03T21:23:17.700Z,9.77
2018-07-03T21:25:45.267Z,9.87
2018-07-03T21:28:12.825Z,9.03
2018-07-03T21:30:40.876Z,12.67
2018-07-03T21:33:08.703Z,8.90
2018-07-03T21:35:36.220Z,9.90
2018-07-03T21:38:03.733Z,12.80
2018-07-03T21:40:31.235Z,9.47
2018-07-03T21:42:58.724Z,16.40
2018-07-03T21:45:26.223Z,16.23
2018-07-03T21:47:53.745Z,8.50
2018-07-03T21:50:21.336Z,12.67
2018-07-03T21:52:48.771Z,9.17
2018-07-03T21:55:16.220Z,9.03
2018-07-03T21:57:43.720Z,10.47
2018-07-03T22:00:11.329Z,10.17
2018-07-03T22:02:38.863Z,10.27
2018-07-03T22:05:06.611Z,9.80
2018-07-03T22:07:34.132Z,8.33
2018-07-03T22:10:03.184Z,10.40
2018-07-03T22:12:30.852Z,8.83
2018-07-03T22:14:58.372Z,8.63
2018-07-03T22:17:26.128Z,12.70
2018-07-03T22:19:54.412Z,13.93
2018-07-03T22:22:21.952Z,11.50
2018-07-03T22:24:49.486Z,10.70
2018-07-03T22:27:16.974Z,12.00
2018-07-03T22:29:44.571Z,18.27
2018-07-03T22:32:12.014Z,11.43
2018-07-03T22:34:39.672Z,10.20
2018-07-03T22:37:07.183Z,13.13
2018-07-03T22:39:35.453Z,12.83
2018-07-03T22:42:02.911Z,11.63
2018-07-03T22:44:32.667Z,9.70
2018-07-03T22:47:00.168Z,9.40
2018-07-03T22:49:27.720Z,17.33
2018-07-03T22:51:55.236Z,13.17
2018-07-03T22:54:23.225Z,12.37
2018-07-03T22:56:50.713Z,13.73
2018-07-03T22:59:18.213Z,11.97
2018-07-03T23:01:45.728Z,12.53
2018-07-03T23:04:13.238Z,10.70
2018-07-03T23:06:40.880Z,14.03
2018-07-03T23:09:08.409Z,8.80
2018-07-03T23:11:36.261Z,12.03
2018-07-03T23:14:03.732Z,11.70
2018-07-03T23:16:31.279Z,9.87
2018-07-03T23:18:58.771Z,13.57
2018-07-03T23:21:26.864Z,13.80
2018-07-03T23:23:54.912Z,13.57
2018-07-03T23:26:22.405Z,9.43
2018-07-03T23:28:49.877Z,16.67
2018-07-03T23:31:17.445Z,13.03
2018-07-03T23:33:45.692Z,12.77
2018-07-03T23:36:14.525Z,14.10
2018-07-03T23:38:42.204Z,11.50
2018-07-03T23:41:09.852Z,13.73
2018-07-03T23:43:37.361Z,9.70
2018-07-03T23:46:03.969Z,13.27
2018-07-03T23:48:42.895Z,11.60
2018-07-03T23:51:22.056Z,11.80
2018-07-03T23:54:01.093Z,14.53
2018-07-03T23:56:40.607Z,11.40
2018-07-03T23:59:19.559Z,14.60
